Time;durP1;ratioP1;P1;durP2;ratioP2;P2;SDS_P1;SDS_P2;PMS_P1;PMS_P2;Temp;Humidity;BMP_temperature;BMP_pressure;BME280_temperature;BME280_humidity;BME280_pressure;Samples;Min_cycle;Max_cycle;Signal;HPM_P1;HPM_P2
2021/01/21 00:01:42;;;;;;;79.05;38.60;;;;;;;1.68;85.82;98094.75;4929854;29;20032;-81
2021/01/21 00:04:08;;;;;;;84.50;43.03;;;;;;;1.58;88.17;98111.59;4933065;29;20544;-81
2021/01/21 00:06:34;;;;;;;84.15;38.42;;;;;;;1.56;87.12;98097.59;4915768;29;20028;-81
2021/01/21 00:09:00;;;;;;;81.60;39.90;;;;;;;1.54;87.42;98113.44;4924585;29;20485;-81
2021/01/21 00:11:26;;;;;;;80.35;38.95;;;;;;;1.43;86.98;98112.75;4934832;29;20027;-81
2021/01/21 00:13:51;;;;;;;82.50;39.67;;;;;;;1.31;87.35;98107.69;4927023;29;20036;-81
2021/01/21 00:16:17;;;;;;;73.57;36.33;;;;;;;1.31;87.77;98112.97;4915503;29;20031;-81
2021/01/21 00:18:43;;;;;;;69.82;33.90;;;;;;;1.29;87.71;98101.59;4924225;29;20032;-81
2021/01/21 00:21:08;;;;;;;76.15;34.13;;;;;;;1.15;88.37;98093.00;4917396;29;20060;-81
2021/01/21 00:23:34;;;;;;;84.75;41.47;;;;;;;1.12;88.96;98095.69;4941477;29;20412;-81
2021/01/21 00:25:59;;;;;;;72.15;31.48;;;;;;;1.20;89.59;98085.91;4907520;29;20429;-81
2021/01/21 00:28:25;;;;;;;67.00;29.02;;;;;;;1.21;89.63;98092.03;4923147;29;20035;-81
2021/01/21 00:30:51;;;;;;;61.78;27.15;;;;;;;1.17;90.06;98096.47;4922594;29;20031;-81
2021/01/21 00:33:16;;;;;;;59.40;27.88;;;;;;;1.04;90.02;98098.47;4916206;29;20032;-81
2021/01/21 00:35:42;;;;;;;53.67;24.27;;;;;;;0.89;90.46;98105.72;4920457;29;20099;-81
2021/01/21 00:38:08;;;;;;;61.10;29.48;;;;;;;0.84;90.52;98105.78;4910395;29;20046;-81
2021/01/21 00:40:33;;;;;;;78.63;32.97;;;;;;;0.79;91.41;98090.97;4934115;29;20174;-81
2021/01/21 00:42:59;;;;;;;84.82;35.80;;;;;;;0.76;91.86;98091.00;4926580;29;20032;-81
2021/01/21 00:45:24;;;;;;;95.72;44.40;;;;;;;0.73;92.11;98097.19;4918308;29;20031;-81
2021/01/21 00:47:50;;;;;;;84.75;36.10;;;;;;;0.68;92.65;98087.63;4911881;29;20032;-81
2021/01/21 00:50:16;;;;;;;85.97;39.67;;;;;;;0.66;92.45;98090.25;4923299;29;20043;-81
2021/01/21 00:52:42;;;;;;;212.57;80.78;;;;;;;0.73;93.46;98077.88;4922987;29;20445;-81
2021/01/21 00:55:08;;;;;;;467.27;161.18;;;;;;;0.82;93.42;98085.66;4938735;29;20067;-81
2021/01/21 00:57:33;;;;;;;263.17;89.10;;;;;;;0.83;93.13;98087.41;4899554;29;20484;-81
2021/01/21 00:59:59;;;;;;;131.90;50.00;;;;;;;0.79;92.52;98090.97;4930435;29;20043;-82
2021/01/21 01:02:24;;;;;;;124.85;48.80;;;;;;;0.72;92.66;98070.88;4939719;29;20031;-81
2021/01/21 01:04:50;;;;;;;175.30;63.67;;;;;;;0.71;92.42;98077.06;4921459;29;20046;-81
2021/01/21 01:07:15;;;;;;;88.57;35.47;;;;;;;0.72;92.61;98061.22;4918460;29;20051;-81
2021/01/21 01:09:41;;;;;;;82.07;36.13;;;;;;;0.69;92.62;98070.91;4931500;29;20412;-81
2021/01/21 01:12:07;;;;;;;96.15;40.30;;;;;;;0.55;93.03;98061.44;4915165;29;20460;-81
2021/01/21 01:14:32;;;;;;;63.10;27.88;;;;;;;0.63;92.97;98058.72;4934056;29;20054;-81
2021/01/21 01:16:58;;;;;;;28.08;13.30;;;;;;;0.75;92.95;98041.88;4918377;29;20041;-81
2021/01/21 01:19:23;;;;;;;33.28;14.75;;;;;;;0.77;92.71;98055.91;4923905;29;20031;-81
2021/01/21 01:21:49;;;;;;;53.70;24.80;;;;;;;0.84;91.97;98049.63;4920433;29;20062;-81
2021/01/21 01:24:15;;;;;;;48.95;21.90;;;;;;;0.74;92.25;98050.69;4917845;29;20135;-80
2021/01/21 01:26:40;;;;;;;106.22;54.13;;;;;;;0.69;92.85;98048.09;4933646;29;20031;-80
2021/01/21 01:29:06;;;;;;;65.55;31.80;;;;;;;0.68;92.22;98053.41;4933844;29;20024;-80
2021/01/21 01:31:31;;;;;;;68.40;33.28;;;;;;;0.53;93.34;98044.81;4934452;29;20022;-80
2021/01/21 01:33:57;;;;;;;57.10;27.80;;;;;;;0.55;93.40;98058.81;4918069;29;20122;-81
2021/01/21 01:36:22;;;;;;;51.65;25.60;;;;;;;0.53;92.95;98047.44;4923681;29;20519;-80
2021/01/21 01:38:48;;;;;;;76.43;36.17;;;;;;;0.56;93.98;98030.75;4927513;29;20118;-82
2021/01/21 01:41:14;;;;;;;66.47;34.22;;;;;;;0.59;93.54;98040.34;4917082;29;20057;-81
2021/01/21 01:43:39;;;;;;;73.95;35.25;;;;;;;0.51;93.96;98049.25;4918445;29;20027;-80
2021/01/21 01:46:06;;;;;;;67.15;34.78;;;;;;;0.45;94.06;98044.06;4926090;29;20036;-80
2021/01/21 01:48:32;;;;;;;101.03;43.90;;;;;;;0.37;94.33;98032.78;4929626;29;20060;-81
2021/01/21 01:51:02;;;;;;;68.30;31.17;;;;;;;0.45;95.01;98020.41;4914239;29;20035;-81
2021/01/21 01:53:33;;;;;;;74.45;33.97;;;;;;;0.44;94.80;98031.81;4922473;29;20103;-80
2021/01/21 01:55:59;;;;;;;66.57;29.35;;;;;;;0.52;94.32;98019.38;4928914;29;20502;-80
2021/01/21 01:58:25;;;;;;;53.28;24.70;;;;;;;0.58;94.52;98020.22;4931558;29;20036;-80
2021/01/21 02:00:53;;;;;;;64.43;29.95;;;;;;;0.60;93.76;98010.53;4930175;29;20028;-80
2021/01/21 02:03:20;;;;;;;67.40;30.23;;;;;;;0.60;93.91;98015.78;4915880;29;20126;-80
2021/01/21 02:05:45;;;;;;;53.22;25.15;;;;;;;0.63;93.89;98015.72;4951339;28;20114;-81
2021/01/21 02:08:11;;;;;;;76.25;34.58;;;;;;;0.63;93.53;98015.72;4914954;29;20052;-80
2021/01/21 02:10:36;;;;;;;73.25;31.35;;;;;;;0.65;93.81;98014.81;4931322;29;20031;-81
2021/01/21 02:13:23;;;;;;;87.95;39.42;;;;;;;0.61;93.27;98017.53;4938154;29;20039;-81
2021/01/21 02:16:07;;;;;;;82.15;36.65;;;;;;;0.65;93.49;98016.59;4940744;29;20031;-81
2021/01/21 02:18:42;;;;;;;75.10;33.20;;;;;;;0.62;93.69;98021.88;4937251;29;20028;-81
2021/01/21 02:21:22;;;;;;;85.90;36.85;;;;;;;0.64;93.47;98022.75;4937880;29;20177;-81
2021/01/21 02:24:10;;;;;;;88.57;37.30;;;;;;;0.65;93.44;98009.56;4932856;29;20036;-81
2021/01/21 02:26:54;;;;;;;88.80;38.15;;;;;;;0.63;93.66;98015.72;4932068;29;20050;-81
2021/01/21 02:29:38;;;;;;;94.15;37.78;;;;;;;0.71;94.07;98005.97;4931692;29;20042;-81
2021/01/21 02:32:06;;;;;;;81.88;32.50;;;;;;;0.80;93.83;98016.34;4929837;29;20035;-81
2021/01/21 02:34:39;;;;;;;90.63;37.03;;;;;;;0.79;93.03;98019.88;4938475;29;20038;-81
2021/01/21 02:37:09;;;;;;;85.25;39.72;;;;;;;0.78;93.66;98018.13;4945987;29;20039;-81
2021/01/21 02:39:35;;;;;;;144.30;56.88;;;;;;;0.80;93.29;98016.34;4936476;29;20476;-81
2021/01/21 02:42:04;;;;;;;165.50;62.30;;;;;;;0.83;93.25;98013.69;4925822;29;20067;-81
2021/01/21 02:44:30;;;;;;;223.15;86.78;;;;;;;0.79;92.94;98011.97;4931268;29;20473;-81
2021/01/21 02:46:56;;;;;;;126.97;52.55;;;;;;;0.86;93.01;98013.63;4923767;29;20054;-81
2021/01/21 02:49:22;;;;;;;148.23;62.80;;;;;;;0.93;92.15;98021.38;4907110;29;20076;-81
2021/01/21 02:51:58;;;;;;;166.25;69.50;;;;;;;0.83;92.50;98018.94;4932834;29;20040;-80
2021/01/21 02:54:34;;;;;;;84.60;41.17;;;;;;;0.90;91.74;98020.56;4941440;29;20116;-80
2021/01/21 02:57:06;;;;;;;115.97;50.33;;;;;;;0.84;92.14;98015.41;4928799;29;20028;-81
2021/01/21 02:59:33;;;;;;;;;;;;;;;0.77;92.93;98013.78;4938653;29;20035;-81
2021/01/21 03:02:00;;;;;;;59.25;29.45;;;;;;;0.70;92.63;98014.75;4937743;29;19915;-81
2021/01/21 03:04:27;;;;;;;51.78;26.27;;;;;;;0.74;92.50;98011.19;4929957;29;20131;-81
2021/01/21 03:06:56;;;;;;;71.57;34.47;;;;;;;0.73;92.54;98017.34;4929767;29;20052;-81
2021/01/21 03:09:22;;;;;;;68.10;31.23;;;;;;;0.74;92.61;98027.00;4928096;29;20042;-81
2021/01/21 03:11:47;;;;;;;52.45;25.95;;;;;;;0.66;92.49;98013.94;4945526;29;20031;-81
2021/01/21 03:14:13;;;;;;;28.45;14.25;;;;;;;0.65;92.34;98006.91;4936714;29;20040;-81
2021/01/21 03:16:39;;;;;;;30.83;15.00;;;;;;;0.65;92.65;98013.97;4919183;29;20036;-81
2021/01/21 03:19:04;;;;;;;47.17;23.00;;;;;;;0.66;92.73;98011.31;4931506;29;20200;-81
2021/01/21 03:21:30;;;;;;;49.25;22.15;;;;;;;0.65;92.55;98009.56;4922095;29;20036;-80
2021/01/21 03:23:55;;;;;;;28.77;13.82;;;;;;;0.78;92.71;98010.22;4927824;29;20033;-80
2021/01/21 03:26:21;;;;;;;52.72;23.13;;;;;;;0.72;92.26;97994.53;4929635;29;20111;-81
2021/01/21 03:28:46;;;;;;;57.28;25.17;;;;;;;0.70;92.00;98009.50;4919118;29;20039;-81
2021/01/21 03:31:12;;;;;;;51.92;24.15;;;;;;;0.65;92.41;98016.59;4917827;29;20121;-81
2021/01/21 03:34:00;;;;;;;68.70;30.13;;;;;;;0.66;93.06;98010.44;4933108;29;20059;-81
2021/01/21 03:36:58;;;;;;;68.70;29.15;;;;;;;0.23;93.10;97937.41;4962722;28;20050;-80
2021/01/21 03:39:24;;;;;;;73.82;28.67;;;;;;;0.71;93.27;98013.88;4914681;29;20035;-80
2021/01/21 03:41:51;;;;;;;58.58;24.77;;;;;;;0.74;93.04;97998.88;4911379;29;20046;-80
2021/01/21 03:44:17;;;;;;;62.95;27.85;;;;;;;0.79;92.99;98018.13;4934920;29;20027;-80
2021/01/21 03:46:42;;;;;;;96.20;37.08;;;;;;;0.88;92.04;98001.28;4934453;29;20515;-80
2021/01/21 03:49:08;;;;;;;121.88;43.00;;;;;;;0.82;92.23;98001.41;4934858;29;20026;-81
2021/01/21 03:51:34;;;;;;;95.25;35.90;;;;;;;0.79;92.34;98004.94;4918844;29;20068;-81
2021/01/21 03:53:59;;;;;;;78.82;32.50;;;;;;;0.81;92.33;98012.81;4934783;29;20036;-80
2021/01/21 03:56:25;;;;;;;86.85;32.90;;;;;;;0.84;92.22;98004.88;4918936;29;20091;-81
2021/01/21 03:58:50;;;;;;;79.18;32.95;;;;;;;0.86;92.09;97998.66;4947458;29;20024;-80
2021/01/21 04:01:16;;;;;;;128.90;47.42;;;;;;;0.82;94.03;98006.66;4937825;29;20039;-79
2021/01/21 04:03:41;;;;;;;108.78;43.38;;;;;;;0.82;93.08;98017.19;4942780;29;20036;-80
2021/01/21 04:06:07;;;;;;;96.32;39.20;;;;;;;0.82;92.84;98017.19;4929789;29;20028;-81
2021/01/21 04:08:33;;;;;;;206.68;55.17;;;;;;;0.79;93.17;98012.84;4915515;29;20039;-80
2021/01/21 04:10:58;;;;;;;115.80;43.35;;;;;;;0.73;92.92;98002.41;4931914;29;20059;-81
2021/01/21 04:13:24;;;;;;;68.15;27.60;;;;;;;0.86;92.29;98003.09;4915512;29;20066;-80
2021/01/21 04:15:50;;;;;;;76.93;31.67;;;;;;;0.82;92.56;98019.81;4931373;29;20073;-80
2021/01/21 04:18:16;;;;;;;81.38;34.63;;;;;;;0.84;92.34;98010.13;4932171;29;20065;-80
2021/01/21 04:20:42;;;;;;;75.97;33.38;;;;;;;0.82;92.50;98012.81;4926200;29;20499;-81
2021/01/21 04:23:08;;;;;;;61.33;27.85;;;;;;;0.91;92.33;98012.66;4941302;29;20047;-81
2021/01/21 04:25:33;;;;;;;64.65;28.00;;;;;;;0.85;92.96;98030.31;4932514;29;20055;-80
2021/01/21 04:27:59;;;;;;;59.75;27.25;;;;;;;0.91;92.53;98006.50;4925976;29;20043;-80
2021/01/21 04:30:25;;;;;;;58.28;25.83;;;;;;;0.80;93.45;98027.72;4929481;29;20589;-80
2021/01/21 04:32:50;;;;;;;56.13;25.65;;;;;;;0.81;93.24;98015.44;4920235;29;20024;-80
2021/01/21 04:35:17;;;;;;;58.58;24.73;;;;;;;0.81;93.34;98029.47;4940619;29;20034;-80
2021/01/21 04:37:42;;;;;;;55.10;24.92;;;;;;;0.78;93.93;98023.38;4936432;29;20020;-80
2021/01/21 04:40:08;;;;;;;132.70;45.80;;;;;;;0.77;93.96;98026.94;4928001;29;20381;-80
2021/01/21 04:42:35;;;;;;;84.65;30.85;;;;;;;0.82;93.85;98028.59;4923296;29;20111;-81
2021/01/21 04:45:02;;;;;;;106.97;40.63;;;;;;;0.79;93.54;98033.91;4935415;29;20028;-79
2021/01/21 04:47:28;;;;;;;164.57;59.05;;;;;;;0.83;93.20;98026.84;4906146;28;20044;-81
2021/01/21 04:49:54;;;;;;;102.63;44.25;;;;;;;0.92;92.69;98039.84;4956757;28;20106;-82
2021/01/21 04:52:21;;;;;;;114.75;45.53;;;;;;;0.94;92.84;98048.59;4924840;29;20040;-82
2021/01/21 04:54:58;;;;;;;116.78;47.40;;;;;;;0.89;92.68;98037.28;4910305;29;20058;-82
2021/01/21 04:57:36;;;;;;;115.45;51.45;;;;;;;0.90;93.00;98046.88;4917716;29;20031;-81
2021/01/21 05:00:02;;;;;;;104.30;46.00;;;;;;;1.02;93.25;98039.66;4953776;28;20039;-81
2021/01/21 05:02:27;;;;;;;97.78;40.38;;;;;;;1.08;91.20;98038.69;4923243;29;20015;-82
2021/01/21 05:04:54;;;;;;;85.90;33.50;;;;;;;1.17;89.65;98045.59;4918962;29;20082;-81
2021/01/21 05:07:20;;;;;;;84.55;39.05;;;;;;;1.20;89.40;98043.75;4924345;29;20028;-81
2021/01/21 05:09:46;;;;;;;125.40;52.08;;;;;;;1.18;89.76;98034.13;4923185;29;20027;-81
2021/01/21 05:12:11;;;;;;;142.23;58.22;;;;;;;1.18;90.36;98039.41;4922476;29;20032;-82
2021/01/21 05:14:37;;;;;;;154.52;67.68;;;;;;;1.20;89.89;98035.00;4911570;29;20058;-81
2021/01/21 05:17:03;;;;;;;107.20;47.28;;;;;;;1.28;89.36;98039.22;4921863;29;20027;-81
2021/01/21 05:19:31;;;;;;;101.70;47.30;;;;;;;1.48;89.77;98018.66;4945071;29;20028;-81
2021/01/21 05:21:57;;;;;;;109.65;50.38;;;;;;;1.55;87.86;98022.91;4914447;29;20044;-81
2021/01/21 05:24:25;;;;;;;120.82;56.83;;;;;;;1.59;87.60;98019.34;4908214;29;798015;-81
2021/01/21 05:26:51;;;;;;;113.50;51.97;;;;;;;1.58;87.27;98016.72;4925347;29;20032;-83
2021/01/21 05:29:17;;;;;;;87.80;38.95;;;;;;;1.45;87.22;98012.56;4942213;29;20039;-82
2021/01/21 05:31:43;;;;;;;57.42;27.25;;;;;;;1.41;86.30;98006.50;4924887;29;20036;-76
2021/01/21 05:34:08;;;;;;;45.15;20.83;;;;;;;1.27;86.09;98007.63;4938889;29;21116;-81
2021/01/21 05:36:43;;;;;;;38.25;20.10;;;;;;;1.27;86.77;98005.00;4948956;29;20036;-82
2021/01/21 05:39:09;;;;;;;41.13;20.23;;;;;;;1.18;87.29;98002.53;4930928;29;20035;-81
2021/01/21 05:41:36;;;;;;;46.65;22.50;;;;;;;1.16;87.59;98002.56;4934669;29;20110;-82
2021/01/21 05:44:03;;;;;;;43.97;21.88;;;;;;;1.22;87.97;98018.25;4912207;29;20032;-81
2021/01/21 05:46:29;;;;;;;55.28;28.10;;;;;;;1.17;88.75;98022.72;4935843;29;20039;-81
2021/01/21 05:48:54;;;;;;;52.75;24.80;;;;;;;1.23;88.45;98016.50;4949390;29;20031;-80
2021/01/21 05:51:22;;;;;;;31.55;15.70;;;;;;;1.29;87.50;98005.88;4930305;29;20076;-81
2021/01/21 05:53:48;;;;;;;37.58;19.10;;;;;;;1.28;87.66;98014.66;4925938;29;20044;-81
2021/01/21 05:56:17;;;;;;;34.65;16.30;;;;;;;1.34;87.60;98012.78;4929333;29;20051;-80
2021/01/21 05:58:43;;;;;;;35.13;16.85;;;;;;;1.34;87.34;98022.44;4934902;29;20031;-81
2021/01/21 06:01:09;;;;;;;29.65;15.27;;;;;;;1.43;87.35;98012.59;4939132;29;20427;-81
2021/01/21 06:03:35;;;;;;;32.55;14.57;;;;;;;1.52;88.13;98017.72;4939503;29;20144;-80
2021/01/21 06:06:27;;;;;;;29.52;13.13;;;;;;;1.72;88.63;98029.66;4938324;29;20522;-80
2021/01/21 06:08:52;;;;;;;34.67;14.63;;;;;;;1.75;87.39;98027.81;4910238;29;20044;-81
2021/01/21 06:11:21;;;;;;;23.42;12.45;;;;;;;1.82;85.48;98025.91;4930267;29;20031;-82
2021/01/21 06:13:47;;;;;;;30.52;17.08;;;;;;;1.89;85.32;98031.03;4932712;29;20385;-81
2021/01/21 06:16:14;;;;;;;36.00;19.23;;;;;;;1.90;84.89;98024.88;4962098;28;20043;-81
2021/01/21 06:18:40;;;;;;;30.10;16.48;;;;;;;1.98;84.18;98025.59;4946109;29;20038;-81
2021/01/21 06:21:07;;;;;;;90.43;42.35;;;;;;;2.13;82.94;98027.03;4951679;29;20524;-81
2021/01/21 06:23:34;;;;;;;57.78;29.40;;;;;;;2.09;82.75;98026.22;4940376;29;20032;-80
2021/01/21 06:26:00;;;;;;;348.55;205.23;;;;;;;2.19;84.20;98026.91;4932919;29;20058;-80
2021/01/21 06:28:27;;;;;;;114.10;50.78;;;;;;;2.23;83.68;98033.84;4928090;29;20052;-81
2021/01/21 06:30:57;;;;;;;129.98;57.10;;;;;;;2.34;83.22;98025.72;4929035;29;20059;-80
2021/01/21 06:33:26;;;;;;;106.80;45.78;;;;;;;2.40;82.16;98036.97;4931264;29;20023;-81
2021/01/21 06:35:59;;;;;;;109.68;49.58;;;;;;;2.52;81.81;98028.78;4961234;29;20069;-80
2021/01/21 06:38:33;;;;;;;123.07;58.47;;;;;;;2.64;80.77;98038.22;4938632;29;20055;-80
2021/01/21 06:41:02;;;;;;;146.23;70.80;;;;;;;2.89;80.60;98030.59;4932684;29;20091;-81
2021/01/21 06:43:40;;;;;;;146.57;66.90;;;;;;;3.04;79.18;98041.69;4942729;29;20027;-81
2021/01/21 06:46:10;;;;;;;154.40;71.93;;;;;;;3.07;79.05;98035.44;4949275;29;20066;-81
2021/01/21 06:48:53;;;;;;;189.23;88.78;;;;;;;3.21;78.35;98051.81;4944995;29;20058;-80
2021/01/21 06:51:21;;;;;;;166.13;78.40;;;;;;;3.40;76.73;98021.38;4919869;29;20391;-81
2021/01/21 06:53:49;;;;;;;146.27;66.70;;;;;;;3.53;75.29;98014.88;4929978;29;20043;-82
2021/01/21 06:56:15;;;;;;;295.58;127.90;;;;;;;3.75;73.71;97986.91;4946788;29;20039;-81
2021/01/21 06:58:43;;;;;;;286.73;131.77;;;;;;;4.07;74.16;98036.28;4938652;29;20032;-81
2021/01/21 07:01:29;;;;;;;245.75;115.22;;;;;;;4.47;72.72;98035.97;4925064;29;20503;-81
2021/01/21 07:03:59;;;;;;;257.45;120.93;;;;;;;4.72;71.57;98030.81;4933011;29;20055;-81
2021/01/21 07:06:24;;;;;;;271.17;130.57;;;;;;;5.20;69.29;98036.34;4941190;29;20039;-81
2021/01/21 07:09:07;;;;;;;199.80;99.97;;;;;;;5.51;67.99;98037.03;4928267;29;20087;-81
2021/01/21 07:11:33;;;;;;;162.60;69.75;;;;;;;5.62;65.73;98034.88;4928001;29;20050;-81
2021/01/21 07:13:59;;;;;;;174.85;85.03;;;;;;;5.75;65.27;98041.47;4935434;29;20571;-81
2021/01/21 07:16:25;;;;;;;167.52;81.72;;;;;;;5.88;64.52;98040.16;4957925;29;20035;-81
2021/01/21 07:18:51;;;;;;;150.10;67.43;;;;;;;5.97;63.88;98037.19;4958124;28;20088;-82
2021/01/21 07:21:23;;;;;;;159.48;68.65;;;;;;;6.10;64.35;98052.69;4960528;29;20063;-82
2021/01/21 07:23:52;;;;;;;158.73;67.53;;;;;;;6.51;63.30;98052.91;4917550;29;20070;-82
2021/01/21 07:26:20;;;;;;;92.95;44.17;;;;;;;6.75;60.87;98059.06;4942278;29;20040;-81
2021/01/21 07:28:58;;;;;;;117.72;53.22;;;;;;;6.96;61.12;98071.53;4935009;29;20480;-82
2021/01/21 07:31:47;;;;;;;73.40;34.40;;;;;;;7.21;58.92;98060.78;4940420;29;20114;-82
2021/01/21 07:34:28;;;;;;;109.50;48.25;;;;;;;7.58;57.61;98069.00;4932978;29;20091;-81
2021/01/21 07:37:18;;;;;;;127.57;56.80;;;;;;;7.73;57.03;98047.97;4925647;29;20027;-82
2021/01/21 07:39:49;;;;;;;104.57;50.83;;;;;;;7.92;56.62;98055.09;4924677;29;20047;-81
2021/01/21 07:42:15;;;;;;;117.78;57.33;;;;;;;8.42;55.60;98070.69;4932031;29;20032;-82
2021/01/21 07:45:01;;;;;;;62.35;28.98;;;;;;;8.63;53.90;98069.72;4924950;29;20103;-81
2021/01/21 07:47:34;;;;;;;47.33;24.10;;;;;;;8.63;52.04;98061.72;4923191;29;20063;-82
2021/01/21 07:50:29;;;;;;;72.72;36.17;;;;;;;9.17;52.11;98059.13;4944350;29;20468;-81
2021/01/21 07:52:59;;;;;;;104.40;51.70;;;;;;;9.50;51.39;98056.63;4925913;29;20039;-83
2021/01/21 07:55:35;;;;;;;62.88;29.70;;;;;;;9.69;48.78;98053.91;4946493;29;20056;-81
2021/01/21 07:58:26;;;;;;;92.20;44.90;;;;;;;10.14;47.78;98062.28;4925866;29;20042;-82
2021/01/21 08:00:56;;;;;;;48.38;24.48;;;;;;;10.73;45.67;98059.09;4926004;29;20032;-81
2021/01/21 08:03:29;;;;;;;58.97;28.80;;;;;;;11.53;44.04;98052.81;4933272;29;20024;-82
2021/01/21 08:06:10;;;;;;;66.82;35.78;;;;;;;12.16;44.15;98040.13;4929864;29;20489;-82
2021/01/21 08:08:37;;;;;;;50.13;26.73;;;;;;;13.01;41.65;98044.56;4946731;29;20051;-81
2021/01/21 08:11:05;;;;;;;31.33;17.98;;;;;;;13.85;38.85;98044.47;4944150;29;20028;-80
2021/01/21 08:13:31;;;;;;;29.75;16.05;;;;;;;14.01;37.64;98047.84;4946246;29;20043;-81
2021/01/21 08:15:57;;;;;;;24.90;14.30;;;;;;;13.84;37.34;98042.78;4946672;29;20115;-81
2021/01/21 08:18:23;;;;;;;37.67;21.55;;;;;;;14.06;37.75;98051.94;4936737;29;20034;-81
2021/01/21 08:20:49;;;;;;;36.85;17.15;;;;;;;14.54;36.93;98045.06;4959738;29;20028;-82
2021/01/21 08:23:15;;;;;;;45.33;22.67;;;;;;;15.14;37.10;98044.34;4929871;29;20020;-81
2021/01/21 08:25:47;;;;;;;38.38;21.33;;;;;;;15.47;35.87;98058.09;4939612;29;20063;-81
2021/01/21 08:28:17;;;;;;;47.42;25.65;;;;;;;16.05;35.50;98042.97;4946481;29;20047;-82
2021/01/21 08:30:44;;;;;;;48.67;25.55;;;;;;;16.64;34.79;98041.94;4929742;29;20190;-81
2021/01/21 08:33:27;;;;;;;47.80;25.20;;;;;;;17.10;33.61;98047.25;4955300;29;20050;-81
2021/01/21 08:35:55;;;;;;;46.03;25.83;;;;;;;17.32;32.88;98043.66;4935213;29;20031;-81
2021/01/21 08:38:23;;;;;;;24.58;13.32;;;;;;;17.06;32.02;98034.13;4910070;29;20063;-81
2021/01/21 08:40:51;;;;;;;13.43;8.68;;;;;;;17.53;30.55;98035.69;4971251;28;20024;-82
2021/01/21 08:43:17;;;;;;;15.23;8.93;;;;;;;17.19;30.91;98035.72;4969043;28;20106;-81
2021/01/21 08:45:43;;;;;;;16.60;8.38;;;;;;;17.05;31.59;98044.06;4923361;29;20036;-81
2021/01/21 08:48:09;;;;;;;24.77;13.40;;;;;;;17.18;31.74;98038.53;4936354;29;20035;-81
2021/01/21 08:50:36;;;;;;;19.50;12.40;;;;;;;17.81;30.66;98041.41;4939010;29;20035;-83
2021/01/21 08:53:10;;;;;;;19.67;10.43;;;;;;;17.09;31.56;98036.56;4932499;29;20496;-82
2021/01/21 08:55:38;;;;;;;16.77;8.90;;;;;;;16.25;32.60;98043.16;4914760;29;20142;-82
2021/01/21 08:58:04;;;;;;;37.17;15.10;;;;;;;17.15;32.34;98036.09;4929023;29;20123;-81
2021/01/21 09:00:31;;;;;;;29.10;13.30;;;;;;;17.54;30.99;98034.66;4948360;29;20055;-82
2021/01/21 09:02:57;;;;;;;18.25;8.20;;;;;;;17.30;30.71;98034.84;4915627;29;20408;-82
2021/01/21 09:05:23;;;;;;;17.30;9.52;;;;;;;17.49;30.62;98028.78;4952314;29;20133;-82
2021/01/21 09:07:50;;;;;;;22.15;11.25;;;;;;;18.08;30.61;98032.84;4930228;29;20063;-82
2021/01/21 09:10:16;;;;;;;11.48;7.28;;;;;;;17.57;30.10;98027.19;4924740;29;20100;-82
2021/01/21 09:12:42;;;;;;;18.85;8.68;;;;;;;16.59;32.14;98038.75;4924651;29;20032;-81
2021/01/21 09:15:09;;;;;;;20.35;9.25;;;;;;;17.68;30.84;98032.59;4961593;28;20468;-81
2021/01/21 09:17:37;;;;;;;17.40;8.82;;;;;;;17.97;30.20;98023.88;4940625;29;20127;-81
2021/01/21 09:20:30;;;;;;;47.75;20.20;;;;;;;18.28;29.82;98023.84;4938788;29;20036;-82
2021/01/21 09:22:56;;;;;;;15.52;8.10;;;;;;;18.41;29.50;98029.09;4908434;29;20024;-81
2021/01/21 09:25:27;;;;;;;9.75;6.50;;;;;;;18.04;30.13;98022.38;4937961;29;20591;-81
2021/01/21 09:27:54;;;;;;;17.42;8.23;;;;;;;18.19;29.69;98018.38;4923090;29;20036;-81
2021/01/21 09:30:20;;;;;;;14.93;7.88;;;;;;;17.98;30.50;98020.19;4928158;29;20038;-81
2021/01/21 09:32:46;;;;;;;10.63;6.93;;;;;;;17.99;29.91;98001.13;4941763;29;20439;-81
2021/01/21 09:35:18;;;;;;;24.75;10.07;;;;;;;17.73;30.49;98024.94;4951980;29;20063;-82
2021/01/21 09:37:45;;;;;;;34.75;8.07;;;;;;;18.80;29.73;98020.22;4931486;29;20529;-81
2021/01/21 09:40:15;;;;;;;12.82;6.50;;;;;;;19.51;28.06;98015.69;4958159;29;20051;-82
2021/01/21 09:42:41;;;;;;;18.20;8.32;;;;;;;20.31;26.85;98005.53;4928372;29;20032;-82
2021/01/21 09:45:07;;;;;;;17.05;6.90;;;;;;;20.99;25.64;97996.22;4931997;29;20107;-82
2021/01/21 09:47:33;;;;;;;18.83;8.98;;;;;;;20.54;26.43;97990.63;4946966;29;20059;-82
2021/01/21 09:49:59;;;;;;;11.38;6.30;;;;;;;20.58;27.03;97988.44;4944164;29;20509;-81
2021/01/21 09:52:25;;;;;;;19.15;5.40;;;;;;;20.41;27.01;98000.06;4949263;29;20119;-82
2021/01/21 09:54:51;;;;;;;10.52;5.80;;;;;;;20.33;27.38;97986.38;4953529;29;20059;-81
2021/01/21 09:57:16;;;;;;;10.85;7.00;;;;;;;19.82;28.46;97995.63;4955918;29;20483;-81
2021/01/21 09:59:42;;;;;;;13.32;6.55;;;;;;;20.43;26.73;97976.31;4948747;29;20083;-82
2021/01/21 10:02:08;;;;;;;17.80;7.70;;;;;;;20.25;27.29;97978.03;4966457;28;20116;-82
2021/01/21 10:04:40;;;;;;;28.25;9.88;;;;;;;19.86;27.60;97971.75;4948772;29;20091;-81
2021/01/21 10:07:06;;;;;;;21.45;10.38;;;;;;;19.07;29.99;97981.72;4936344;29;20068;-82
2021/01/21 10:09:32;;;;;;;19.85;9.02;;;;;;;19.06;29.56;97982.69;4952946;29;20100;-82
2021/01/21 10:12:01;;;;;;;19.67;9.82;;;;;;;18.61;30.69;97987.59;4964579;28;20035;-82
2021/01/21 10:14:27;;;;;;;22.92;7.75;;;;;;;18.38;30.27;97981.44;4950361;29;20051;-82
2021/01/21 10:16:53;;;;;;;8.68;5.25;;;;;;;17.78;30.45;97971.28;4964153;29;20019;-81
2021/01/21 10:19:19;;;;;;;12.68;5.50;;;;;;;17.59;31.10;97960.31;4951228;29;20035;-80
2021/01/21 10:21:50;;;;;;;17.05;7.15;;;;;;;17.93;31.17;97969.16;4950254;29;20032;-80
2021/01/21 10:24:16;;;;;;;23.13;9.90;;;;;;;17.78;31.38;97965.88;4967634;28;20401;-81
2021/01/21 10:26:41;;;;;;;18.80;8.65;;;;;;;17.85;30.69;97958.97;4949844;29;20335;-81
2021/01/21 10:29:07;;;;;;;14.02;6.65;;;;;;;17.86;29.81;97955.28;4950002;29;20024;-81
2021/01/21 10:31:33;;;;;;;20.98;9.77;;;;;;;17.58;29.77;97942.34;4944531;29;20522;-81
2021/01/21 10:34:07;;;;;;;10.98;5.82;;;;;;;17.03;30.31;97948.72;4951770;29;20028;-81
2021/01/21 10:36:34;;;;;;;15.95;8.32;;;;;;;16.73;31.31;97948.50;4952895;29;20058;-81
2021/01/21 10:39:00;;;;;;;31.58;17.77;;;;;;;16.36;31.33;97945.16;4968289;29;20073;-81
2021/01/21 10:41:25;;;;;;;14.50;9.25;;;;;;;16.06;31.89;97950.22;4958004;29;20040;-81
2021/01/21 10:43:51;;;;;;;21.83;11.05;;;;;;;15.62;32.95;97948.25;4951769;29;20032;-81
2021/01/21 10:46:17;;;;;;;11.38;5.80;;;;;;;15.11;33.62;97947.56;4935776;29;20111;-81
2021/01/21 10:48:42;;;;;;;12.48;6.32;;;;;;;14.85;33.98;97949.50;4935495;29;20028;-81
2021/01/21 10:51:16;;;;;;;9.38;6.13;;;;;;;14.46;34.69;97950.50;4933021;29;20106;-82
2021/01/21 10:53:42;;;;;;;11.20;6.60;;;;;;;14.33;35.23;97947.00;4934917;29;20040;-81
2021/01/21 10:56:07;;;;;;;10.13;5.07;;;;;;;14.21;35.36;97947.81;4933147;29;20116;-81
2021/01/21 10:58:33;;;;;;;12.48;6.53;;;;;;;14.42;35.24;97943.66;4948503;29;20040;-80
2021/01/21 11:00:59;;;;;;;26.08;7.00;;;;;;;14.65;35.66;97940.16;4934350;29;20036;-82
2021/01/21 11:03:24;;;;;;;14.07;5.03;;;;;;;14.83;34.42;97937.09;4935479;29;20008;-82
2021/01/21 11:05:50;;;;;;;7.60;4.38;;;;;;;14.56;34.74;97919.28;4962470;29;20031;-82
2021/01/21 11:08:15;;;;;;;12.75;5.20;;;;;;;14.73;34.77;97917.22;4936182;29;20031;-82
2021/01/21 11:10:41;;;;;;;8.38;4.20;;;;;;;14.65;34.43;97913.22;4950886;29;20063;-82
2021/01/21 11:13:08;;;;;;;18.73;8.20;;;;;;;14.38;35.75;97920.59;4943263;29;20097;-81
2021/01/21 11:15:34;;;;;;;7.40;4.50;;;;;;;14.12;35.96;97910.78;4939290;29;20056;-82
2021/01/21 11:18:00;;;;;;;9.25;5.50;;;;;;;14.07;36.00;97916.50;4956319;29;20028;-82
2021/01/21 11:20:26;;;;;;;12.00;6.85;;;;;;;13.98;36.26;97909.06;4946563;29;20035;-81
2021/01/21 11:22:52;;;;;;;9.52;5.90;;;;;;;13.64;36.80;97900.75;4931802;29;20038;-81
2021/01/21 11:25:18;;;;;;;12.30;5.82;;;;;;;13.83;36.71;97909.28;4947507;29;20115;-82
2021/01/21 11:27:43;;;;;;;14.40;7.82;;;;;;;14.12;36.46;97900.00;4958032;29;20063;-81